Time;durP1;ratioP1;P1;durP2;ratioP2;P2;SDS_P1;SDS_P2;PMS_P1;PMS_P2;Temp;Humidity;BMP_temperature;BMP_pressure;BME280_temperature;BME280_humidity;BME280_pressure;Samples;Min_cycle;Max_cycle;Signal;HPM_P1;HPM_P2
2023/03/20 00:00:51;;;;;;;4.23;3.70;;;9.40;99.90;;;;;;5052337;28;20658;-84
2023/03/20 00:03:17;;;;;;;4.47;4.07;;;9.40;99.90;;;;;;5053652;28;20187;-85
2023/03/20 00:05:43;;;;;;;4.17;3.70;;;9.40;99.90;;;;;;5053387;28;20233;-84
2023/03/20 00:08:09;;;;;;;5.70;4.20;;;9.50;99.90;;;;;;5052163;28;20173;-84
2023/03/20 00:10:39;;;;;;;4.30;3.77;;;9.50;99.90;;;;;;5053212;28;20284;-84
2023/03/20 00:13:06;;;;;;;6.40;4.30;;;9.50;99.90;;;;;;5053279;28;20181;-84
2023/03/20 00:15:37;;;;;;;4.83;3.50;;;9.50;99.90;;;;;;5053415;28;20216;-84
2023/03/20 00:18:10;;;;;;;5.67;3.13;;;9.50;99.90;;;;;;5053068;28;20177;-84
2023/03/20 00:20:35;;;;;;;4.67;4.13;;;9.50;99.90;;;;;;5052766;28;20193;-84
2023/03/20 00:23:02;;;;;;;5.43;4.60;;;9.50;99.90;;;;;;5052039;28;20170;-84
2023/03/20 00:25:28;;;;;;;6.83;4.77;;;9.50;99.90;;;;;;5053419;28;20602;-84
2023/03/20 00:27:54;;;;;;;6.03;4.60;;;9.40;99.90;;;;;;5053612;28;20173;-84
2023/03/20 00:30:22;;;;;;;5.03;4.53;;;9.40;99.90;;;;;;5051900;28;20198;-84
2023/03/20 00:32:49;;;;;;;5.03;4.53;;;9.30;99.90;;;;;;5053367;28;20184;-84
2023/03/20 00:35:21;;;;;;;5.50;4.20;;;9.20;99.90;;;;;;5051796;28;20267;-85
2023/03/20 00:37:47;;;;;;;6.47;4.97;;;9.20;99.90;;;;;;5054523;28;20216;-86
2023/03/20 00:40:13;;;;;;;5.13;4.67;;;9.20;99.90;;;;;;5051578;28;20687;-84
2023/03/20 00:42:39;;;;;;;6.77;4.90;;;9.20;99.90;;;;;;5052085;28;20173;-84
2023/03/20 00:45:05;;;;;;;5.77;4.37;;;9.10;99.90;;;;;;5053127;28;20177;-84
2023/03/20 00:47:35;;;;;;;4.57;3.77;;;9.10;99.90;;;;;;5052198;28;20641;-85
2023/03/20 00:50:01;;;;;;;4.73;4.30;;;9.10;99.90;;;;;;5052967;28;20197;-84
2023/03/20 00:52:27;;;;;;;4.53;4.10;;;9.20;99.90;;;;;;5055274;28;20193;-84
2023/03/20 00:54:53;;;;;;;5.40;4.23;;;9.10;99.90;;;;;;5057206;28;20211;-84
2023/03/20 00:57:24;;;;;;;6.63;4.40;;;9.10;99.90;;;;;;5056101;28;20530;-84
2023/03/20 00:59:56;;;;;;;4.83;4.37;;;9.10;99.90;;;;;;5057012;28;20242;-84
2023/03/20 01:02:25;;;;;;;4.87;4.30;;;9.10;99.90;;;;;;5055886;28;20166;-84
2023/03/20 01:04:51;;;;;;;4.87;4.00;;;9.00;99.90;;;;;;5055669;28;20268;-84
2023/03/20 01:07:17;;;;;;;4.50;3.90;;;9.10;99.90;;;;;;5055405;28;20267;-85
2023/03/20 01:09:42;;;;;;;4.67;4.10;;;9.10;99.90;;;;;;5055922;28;20196;-84
2023/03/20 01:12:11;;;;;;;6.80;4.20;;;9.10;99.90;;;;;;5055738;28;20181;-86
2023/03/20 01:14:36;;;;;;;4.30;3.90;;;9.10;99.90;;;;;;5054673;28;20201;-86
2023/03/20 01:17:02;;;;;;;4.90;4.40;;;9.20;99.90;;;;;;5056409;28;20180;-84
2023/03/20 01:19:27;;;;;;;5.57;3.87;;;9.20;99.90;;;;;;5055737;28;20194;-84
2023/03/20 01:21:53;;;;;;;4.47;3.70;;;9.20;99.90;;;;;;5055399;28;20220;-85
2023/03/20 01:24:18;;;;;;;5.63;4.20;;;9.30;99.90;;;;;;5055140;28;20176;-84
2023/03/20 01:26:45;;;;;;;4.87;4.37;;;9.30;99.90;;;;;;5056554;28;20260;-84
2023/03/20 01:29:23;;;;;;;5.20;4.17;;;9.40;99.90;;;;;;5055641;28;20586;-86
2023/03/20 01:31:50;;;;;;;5.70;4.43;;;9.40;99.90;;;;;;5056328;28;20256;-85
2023/03/20 01:34:16;;;;;;;5.03;4.37;;;9.50;99.90;;;;;;5056280;28;20244;-84
2023/03/20 01:36:48;;;;;;;8.03;4.93;;;9.50;99.90;;;;;;5056133;28;20296;-85
2023/03/20 01:39:14;;;;;;;4.77;4.37;;;9.50;99.90;;;;;;5056176;28;20684;-84
2023/03/20 01:41:40;;;;;;;5.17;4.23;;;9.50;99.90;;;;;;5054878;28;20169;-85
2023/03/20 01:44:33;;;;;;;4.93;4.33;;;9.50;99.90;;;;;;5054837;28;20706;-86
2023/03/20 01:47:00;;;;;;;5.10;4.60;;;9.60;99.90;;;;;;5052951;28;20269;-84
2023/03/20 01:49:27;;;;;;;5.73;4.87;;;9.60;99.90;;;;;;5054762;28;20210;-84
2023/03/20 01:51:55;;;;;;;5.60;4.97;;;9.60;99.90;;;;;;5054663;28;20175;-84
2023/03/20 01:54:20;;;;;;;6.77;4.87;;;9.50;99.90;;;;;;5054717;28;20197;-85
2023/03/20 01:56:52;;;;;;;6.07;5.43;;;9.40;99.90;;;;;;5056240;28;20177;-85
2023/03/20 01:59:28;;;;;;;6.10;5.40;;;9.40;99.90;;;;;;5054362;28;20232;-85
2023/03/20 02:01:54;;;;;;;6.43;4.80;;;9.40;99.90;;;;;;5054526;28;20268;-85
2023/03/20 02:04:26;;;;;;;5.73;5.20;;;9.40;99.90;;;;;;5053780;28;20266;-84
2023/03/20 02:06:51;;;;;;;6.93;5.43;;;9.40;99.90;;;;;;5054587;28;20223;-84
2023/03/20 02:09:18;;;;;;;6.13;5.53;;;9.40;99.90;;;;;;5056080;28;20288;-85
2023/03/20 02:11:45;;;;;;;6.83;5.90;;;9.30;99.90;;;;;;5056090;28;20181;-84
2023/03/20 02:14:12;;;;;;;7.67;6.00;;;9.30;99.90;;;;;;5054655;28;20351;-84
2023/03/20 02:16:37;;;;;;;6.87;5.50;;;9.30;99.90;;;;;;5055887;28;20300;-84
2023/03/20 02:19:06;;;;;;;8.50;6.53;;;9.30;99.90;;;;;;5055925;28;20217;-86
2023/03/20 02:22:14;;;;;;;8.67;7.10;;;9.30;99.90;;;;;;5054756;28;20172;-84
2023/03/20 02:25:16;;;;;;;9.43;7.00;;;9.30;99.90;;;;;;5055074;28;20180;-84
2023/03/20 02:28:22;;;;;;;9.73;7.50;;;9.30;99.90;;;;;;5054185;28;20536;-84
2023/03/20 02:31:14;;;;;;;8.73;7.50;;;9.30;99.90;;;;;;5053984;28;20181;-86
2023/03/20 02:33:57;;;;;;;9.90;7.13;;;9.30;99.90;;;;;;5055479;28;20203;-84
2023/03/20 02:37:00;;;;;;;9.00;7.70;;;9.30;99.90;;;;;;5053927;28;20263;-84
2023/03/20 02:39:39;;;;;;;9.53;7.20;;;9.30;99.90;;;;;;5115435;22;20223;-83
2023/03/20 02:42:21;;;;;;;8.87;7.50;;;9.30;99.90;;;;;;5058663;28;20183;-82
2023/03/20 02:45:25;;;;;;;8.67;7.77;;;9.40;99.90;;;;;;5059794;28;20611;-82
2023/03/20 02:48:09;;;;;;;8.00;7.10;;;9.40;99.90;;;;;;5045616;28;20188;-82
2023/03/20 02:50:47;;;;;;;9.27;7.70;;;9.40;99.90;;;;;;5075249;28;20606;-83
2023/03/20 02:53:44;;;;;;;9.80;8.07;;;9.40;99.90;;;;;;5060849;28;20168;-82
2023/03/20 02:56:39;;;;;;;10.47;7.93;;;9.40;99.90;;;;;;5069835;28;20651;-79
2023/03/20 02:59:36;;;;;;;8.37;7.57;;;9.40;99.90;;;;;;5065166;28;20197;-81
2023/03/20 03:02:07;;;;;;;10.87;8.23;;;9.40;99.90;;;;;;5069593;28;20637;-81
2023/03/20 03:04:37;;;;;;;10.20;8.47;;;9.40;99.90;;;;;;5071716;28;20188;-81
2023/03/20 03:07:06;;;;;;;10.77;9.07;;;9.40;99.90;;;;;;5071922;28;20181;-80
2023/03/20 03:09:52;;;;;;;10.87;8.57;;;9.30;99.90;;;;;;5061867;28;20250;-80
2023/03/20 03:12:22;;;;;;;11.17;9.00;;;9.40;99.90;;;;;;5057716;28;20663;-80
2023/03/20 03:14:53;;;;;;;10.87;8.67;;;9.30;99.90;;;;;;5059115;28;20217;-79
2023/03/20 03:17:22;;;;;;;9.67;8.43;;;9.30;99.90;;;;;;5057233;28;20176;-80
2023/03/20 03:19:52;;;;;;;10.30;8.17;;;9.30;99.90;;;;;;5057987;28;20187;-82
2023/03/20 03:22:18;;;;;;;12.70;9.43;;;9.30;99.90;;;;;;5057529;28;20237;-79
2023/03/20 03:24:50;;;;;;;12.27;8.83;;;9.30;99.90;;;;;;5057792;28;20180;-81
2023/03/20 03:27:24;;;;;;;11.73;9.13;;;9.40;99.90;;;;;;5058532;28;20185;-80
2023/03/20 03:30:05;;;;;;;12.70;10.00;;;9.40;99.90;;;;;;5058107;28;20204;-80
2023/03/20 03:32:34;;;;;;;11.97;9.70;;;9.40;99.90;;;;;;5057778;28;20184;-80
2023/03/20 03:35:04;;;;;;;11.50;9.37;;;9.40;99.90;;;;;;5059539;28;20273;-80
2023/03/20 03:37:47;;;;;;;12.97;9.83;;;9.40;99.90;;;;;;5058960;28;20181;-80
2023/03/20 03:40:19;;;;;;;14.87;10.53;;;9.30;99.90;;;;;;5059156;28;20291;-80
2023/03/20 03:42:56;;;;;;;13.97;10.10;;;9.40;99.90;;;;;;5057689;28;20197;-80
2023/03/20 03:45:35;;;;;;;16.17;10.90;;;9.40;99.90;;;;;;5060494;28;20179;-80
2023/03/20 03:48:12;;;;;;;16.20;10.97;;;9.40;99.90;;;;;;5058834;28;20172;-80
2023/03/20 03:50:47;;;;;;;15.23;11.43;;;9.40;99.90;;;;;;5057630;28;20235;-80
2023/03/20 03:53:17;;;;;;;16.37;12.27;;;9.40;99.90;;;;;;5059040;28;20191;-81
2023/03/20 03:55:49;;;;;;;16.80;12.40;;;9.40;99.90;;;;;;5058193;28;20551;-80
2023/03/20 03:58:21;;;;;;;16.60;12.10;;;9.30;99.90;;;;;;5057023;28;20181;-79
2023/03/20 04:00:49;;;;;;;15.63;11.47;;;9.30;99.90;;;;;;5059847;28;20222;-80
2023/03/20 04:03:17;;;;;;;18.43;12.10;;;9.30;99.90;;;;;;5059291;28;20183;-80
2023/03/20 04:05:45;;;;;;;17.70;12.80;;;9.30;99.90;;;;;;5057571;28;20184;-81
2023/03/20 04:08:10;;;;;;;20.30;13.43;;;9.20;99.90;;;;;;5059295;28;20184;-80
2023/03/20 04:10:36;;;;;;;17.40;12.10;;;9.20;99.90;;;;;;5059578;28;20209;-80
2023/03/20 04:13:02;;;;;;;17.77;12.80;;;9.20;99.90;;;;;;5058224;28;20593;-82
2023/03/20 04:15:27;;;;;;;20.43;12.60;;;9.20;99.90;;;;;;5059877;28;20303;-79
2023/03/20 04:17:53;;;;;;;17.50;12.77;;;9.20;99.90;;;;;;5057979;28;20188;-80
2023/03/20 04:20:19;;;;;;;18.37;13.13;;;9.20;99.90;;;;;;5056909;28;20676;-80
2023/03/20 04:22:45;;;;;;;17.80;12.57;;;9.20;99.90;;;;;;5056934;28;20175;-80
2023/03/20 04:25:20;;;;;;;20.33;13.37;;;9.10;99.90;;;;;;5058088;28;20274;-81
2023/03/20 04:27:46;;;;;;;23.20;13.97;;;9.10;99.90;;;;;;5059199;28;20176;-80
2023/03/20 04:30:12;;;;;;;19.40;12.77;;;9.10;99.90;;;;;;5057790;28;20287;-80
2023/03/20 04:32:38;;;;;;;19.30;13.37;;;9.10;99.90;;;;;;5061083;28;20513;-80
2023/03/20 04:35:04;;;;;;;18.87;12.70;;;9.10;99.90;;;;;;5059088;28;20755;-80
2023/03/20 04:37:30;;;;;;;19.10;13.17;;;9.10;99.90;;;;;;5058557;28;20184;-80
2023/03/20 04:39:56;;;;;;;17.37;12.33;;;9.10;99.90;;;;;;5057638;28;20201;-80
2023/03/20 04:42:21;;;;;;;17.70;12.37;;;9.10;99.90;;;;;;5060236;28;20180;-80
2023/03/20 04:44:47;;;;;;;19.43;12.80;;;9.10;99.90;;;;;;5060694;28;20618;-80
2023/03/20 04:47:12;;;;;;;18.17;12.80;;;9.10;99.90;;;;;;5058238;28;20246;-80
2023/03/20 04:49:38;;;;;;;16.43;12.07;;;9.20;99.90;;;;;;5061264;28;20201;-80
2023/03/20 04:52:04;;;;;;;17.27;12.37;;;9.20;99.90;;;;;;5059038;28;20195;-80
2023/03/20 04:54:29;;;;;;;19.27;12.90;;;9.20;99.90;;;;;;5059766;28;20212;-80
2023/03/20 04:56:55;;;;;;;19.10;12.83;;;9.20;99.90;;;;;;5059164;28;20181;-80
2023/03/20 04:59:20;;;;;;;23.53;12.93;;;9.20;99.90;;;;;;5061288;28;20246;-80
2023/03/20 05:01:46;;;;;;;20.33;12.60;;;9.10;99.90;;;;;;5059236;28;20578;-81
2023/03/20 05:04:12;;;;;;;18.50;12.47;;;9.10;99.90;;;;;;5062735;28;20184;-81
2023/03/20 05:06:37;;;;;;;18.17;12.33;;;9.10;99.90;;;;;;5059655;28;20625;-80
2023/03/20 05:09:03;;;;;;;18.57;12.67;;;9.10;99.90;;;;;;5061501;28;20732;-79
2023/03/20 05:11:29;;;;;;;18.23;11.77;;;9.20;99.90;;;;;;5062313;28;20187;-81
2023/03/20 05:13:55;;;;;;;21.83;12.67;;;9.10;99.90;;;;;;5060459;28;20263;-81
2023/03/20 05:16:20;;;;;;;19.13;12.80;;;9.10;99.90;;;;;;5060570;28;20186;-80
2023/03/20 05:18:46;;;;;;;17.07;12.47;;;9.10;99.90;;;;;;5060408;28;20725;-80
2023/03/20 05:21:11;;;;;;;20.53;12.80;;;9.10;99.90;;;;;;5060431;28;20208;-80
2023/03/20 05:23:37;;;;;;;18.93;12.83;;;9.20;99.90;;;;;;5061479;28;20179;-81
2023/03/20 05:26:03;;;;;;;19.23;12.60;;;9.10;99.90;;;;;;5061281;28;20207;-80
2023/03/20 05:28:29;;;;;;;18.97;12.40;;;9.10;99.90;;;;;;5062449;28;20177;-82
2023/03/20 05:30:55;;;;;;;19.13;13.17;;;9.10;99.90;;;;;;5061878;28;20238;-81
2023/03/20 05:33:21;;;;;;;20.07;13.07;;;9.10;99.90;;;;;;5063510;28;20169;-82
2023/03/20 05:35:46;;;;;;;20.13;13.47;;;9.00;99.90;;;;;;5065161;28;20172;-80
2023/03/20 05:38:12;;;;;;;21.20;13.27;;;9.00;99.90;;;;;;5066333;28;20235;-80
2023/03/20 05:40:38;;;;;;;23.63;13.90;;;8.90;99.90;;;;;;5067158;28;20206;-80
2023/03/20 05:43:04;;;;;;;23.33;14.67;;;8.80;99.90;;;;;;5067591;28;20632;-81
2023/03/20 05:45:30;;;;;;;22.77;14.00;;;8.80;99.90;;;;;;5069725;28;20195;-81
2023/03/20 05:47:55;;;;;;;24.77;14.70;;;8.80;99.90;;;;;;5068657;28;20205;-81
2023/03/20 05:50:21;;;;;;;24.60;14.70;;;8.80;99.90;;;;;;5070563;28;20178;-81
2023/03/20 05:52:47;;;;;;;21.90;14.03;;;8.90;99.90;;;;;;5069505;28;20581;-80
2023/03/20 05:55:14;;;;;;;27.30;15.47;;;8.80;99.90;;;;;;5070878;28;20205;-81
2023/03/20 05:57:40;;;;;;;28.17;15.67;;;8.80;99.90;;;;;;5070735;28;20236;-80
2023/03/20 06:00:07;;;;;;;24.17;14.63;;;8.80;99.90;;;;;;5071846;28;20598;-81
2023/03/20 06:02:33;;;;;;;26.17;15.87;;;8.90;99.90;;;;;;5071769;28;20175;-81
2023/03/20 06:04:58;;;;;;;25.27;14.83;;;8.80;99.90;;;;;;5071579;28;20186;-82
2023/03/20 06:07:24;;;;;;;25.17;15.03;;;8.80;99.90;;;;;;5072881;28;20246;-80
2023/03/20 06:09:50;;;;;;;26.13;15.67;;;8.90;99.90;;;;;;5061845;28;20199;-82
2023/03/20 06:12:16;;;;;;;26.93;16.30;;;8.90;99.90;;;;;;5057307;28;20247;-83
2023/03/20 06:14:41;;;;;;;26.47;15.00;;;8.90;99.90;;;;;;5057033;28;20681;-82
2023/03/20 06:17:07;;;;;;;26.23;16.07;;;8.90;99.90;;;;;;5055805;28;20171;-82
2023/03/20 06:19:33;;;;;;;26.87;15.53;;;8.90;99.90;;;;;;5057045;28;20728;-83
2023/03/20 06:21:58;;;;;;;26.30;15.60;;;8.90;99.90;;;;;;5057189;28;20162;-82
2023/03/20 06:24:24;;;;;;;27.87;16.63;;;8.90;99.90;;;;;;5057971;28;20170;-82
2023/03/20 06:26:50;;;;;;;27.67;15.57;;;8.90;99.90;;;;;;5056413;28;20184;-82
2023/03/20 06:29:15;;;;;;;27.80;15.87;;;8.90;99.90;;;;;;5055557;28;20232;-82
2023/03/20 06:31:41;;;;;;;24.87;15.17;;;8.90;99.90;;;;;;5055439;28;20201;-82
2023/03/20 06:34:07;;;;;;;27.77;16.00;;;8.90;99.90;;;;;;5055509;28;20198;-82
2023/03/20 06:36:32;;;;;;;27.90;15.73;;;8.90;99.90;;;;;;5055285;28;20188;-82
2023/03/20 06:38:58;;;;;;;29.77;16.47;;;8.90;99.90;;;;;;5055743;28;20225;-83
2023/03/20 06:41:23;;;;;;;27.07;15.97;;;8.90;99.90;;;;;;5055146;28;20262;-82
2023/03/20 06:43:49;;;;;;;30.03;16.87;;;8.90;99.90;;;;;;5054776;28;20269;-79
2023/03/20 06:46:14;;;;;;;28.10;16.50;;;8.90;99.90;;;;;;5053657;28;20237;-78
2023/03/20 06:48:40;;;;;;;29.10;17.07;;;8.90;99.90;;;;;;5053012;28;20190;-79
2023/03/20 06:51:06;;;;;;;29.10;16.63;;;8.90;99.90;;;;;;5053488;28;20601;-80
2023/03/20 06:53:32;;;;;;;27.93;16.67;;;8.90;99.90;;;;;;5055708;28;20186;-80
2023/03/20 06:55:58;;;;;;;24.07;15.00;;;8.90;99.90;;;;;;5058954;28;20174;-81
2023/03/20 06:58:24;;;;;;;27.97;16.70;;;8.90;99.90;;;;;;5058348;28;20227;-80
2023/03/20 07:00:50;;;;;;;27.33;16.33;;;8.90;99.90;;;;;;5055443;28;20279;-80
2023/03/20 07:03:16;;;;;;;26.93;16.23;;;8.90;99.90;;;;;;5055073;28;20185;-81
2023/03/20 07:05:42;;;;;;;29.13;17.53;;;8.90;99.90;;;;;;5058936;28;20188;-83
2023/03/20 07:08:08;;;;;;;31.90;17.17;;;8.90;99.90;;;;;;5058768;28;20182;-83
2023/03/20 07:10:34;;;;;;;27.37;16.47;;;9.00;99.90;;;;;;5058436;28;20208;-84
2023/03/20 07:13:00;;;;;;;30.63;17.90;;;9.00;99.90;;;;;;5058765;28;20244;-83
2023/03/20 07:15:26;;;;;;;27.63;16.60;;;9.00;99.90;;;;;;5048750;28;20197;-83
2023/03/20 07:17:52;;;;;;;27.93;15.87;;;9.00;99.90;;;;;;5052240;28;20167;-79
2023/03/20 07:20:18;;;;;;;29.60;17.03;;;9.00;99.90;;;;;;5056839;28;20337;-81
2023/03/20 07:22:44;;;;;;;32.37;17.73;;;9.00;99.90;;;;;;5061205;28;20167;-80
2023/03/20 07:25:10;;;;;;;29.13;17.27;;;9.00;99.90;;;;;;5060298;28;20207;-81
2023/03/20 07:27:36;;;;;;;30.67;17.63;;;9.00;99.90;;;;;;5062041;28;20641;-80
2023/03/20 07:30:03;;;;;;;30.00;16.50;;;9.00;99.90;;;;;;5057720;28;20334;-81
2023/03/20 07:32:29;;;;;;;31.20;17.10;;;9.10;99.90;;;;;;5055219;28;20196;-80
2023/03/20 07:34:55;;;;;;;31.20;16.60;;;9.20;99.90;;;;;;5058579;28;20201;-80
2023/03/20 07:37:20;;;;;;;29.47;16.30;;;9.20;99.90;;;;;;5053929;28;20196;-80
2023/03/20 07:39:46;;;;;;;32.13;16.37;;;9.20;99.90;;;;;;5053536;28;20209;-81
2023/03/20 07:42:12;;;;;;;30.63;17.07;;;9.20;99.90;;;;;;5054650;28;20259;-80
2023/03/20 07:44:38;;;;;;;29.30;15.80;;;9.20;99.90;;;;;;5054097;28;20181;-80
2023/03/20 07:47:05;;;;;;;31.90;17.10;;;9.20;99.90;;;;;;5055118;28;20556;-80
2023/03/20 07:49:30;;;;;;;32.43;16.87;;;9.20;99.90;;;;;;5053805;28;20281;-80
2023/03/20 07:51:56;;;;;;;34.27;17.10;;;9.30;99.90;;;;;;5055279;28;20210;-80
2023/03/20 07:54:22;;;;;;;34.27;16.83;;;9.30;99.90;;;;;;5054285;28;20566;-79
2023/03/20 07:56:49;;;;;;;36.53;17.13;;;9.40;99.90;;;;;;5058040;28;20218;-80
2023/03/20 07:59:15;;;;;;;31.67;16.97;;;9.40;99.90;;;;;;5055510;28;20574;-80
2023/03/20 08:01:40;;;;;;;34.47;16.63;;;9.40;99.90;;;;;;5054620;28;20176;-80
2023/03/20 08:04:06;;;;;;;35.73;17.00;;;9.50;99.90;;;;;;5052621;28;20176;-80
2023/03/20 08:06:32;;;;;;;33.47;16.90;;;9.50;99.90;;;;;;5052520;28;20594;-81
2023/03/20 08:08:57;;;;;;;33.10;16.77;;;9.50;99.90;;;;;;5054303;28;20250;-81
2023/03/20 08:11:23;;;;;;;31.77;15.37;;;9.60;99.90;;;;;;5054411;28;20705;-80
2023/03/20 08:13:49;;;;;;;33.63;16.63;;;9.60;99.90;;;;;;5054377;28;20201;-81
2023/03/20 08:16:15;;;;;;;31.07;15.77;;;9.60;99.90;;;;;;5054991;28;20171;-81
2023/03/20 08:18:41;;;;;;;31.70;15.83;;;9.60;99.90;;;;;;5054822;28;20177;-80
2023/03/20 08:21:07;;;;;;;30.37;15.60;;;9.70;99.90;;;;;;5054117;28;20197;-81
2023/03/20 08:23:32;;;;;;;31.90;16.63;;;9.70;99.90;;;;;;5054967;28;20590;-81
2023/03/20 08:25:58;;;;;;;30.03;14.90;;;9.80;99.90;;;;;;5053241;28;20596;-81
2023/03/20 08:28:23;;;;;;;32.07;16.67;;;9.80;99.90;;;;;;5055023;28;20306;-81
2023/03/20 08:30:49;;;;;;;24.87;14.20;;;9.70;99.90;;;;;;5054835;28;20200;-80
2023/03/20 08:33:16;;;;;;;27.33;15.50;;;9.70;99.90;;;;;;5053698;28;20179;-81
2023/03/20 08:35:42;;;;;;;29.33;15.40;;;9.70;99.90;;;;;;5054837;28;20208;-81
2023/03/20 08:38:12;;;;;;;27.63;15.37;;;9.80;99.90;;;;;;5054169;28;20688;-80
2023/03/20 08:40:41;;;;;;;30.53;16.17;;;9.80;99.90;;;;;;5078486;22;20222;-81
2023/03/20 08:43:07;;;;;;;28.87;15.57;;;9.80;99.90;;;;;;5055417;28;20190;-83
2023/03/20 08:45:33;;;;;;;32.73;15.77;;;9.80;99.90;;;;;;5055595;28;20607;-81
2023/03/20 08:47:59;;;;;;;29.20;15.73;;;9.80;99.90;;;;;;5055681;28;20176;-81
2023/03/20 08:50:24;;;;;;;31.23;16.00;;;9.90;99.90;;;;;;5054486;28;20243;-80
2023/03/20 08:52:50;;;;;;;26.57;14.87;;;9.90;99.90;;;;;;5055156;28;20173;-81
2023/03/20 08:55:16;;;;;;;29.43;15.37;;;9.90;99.90;;;;;;5054332;28;20713;-80
2023/03/20 08:57:42;;;;;;;27.53;14.67;;;10.00;99.90;;;;;;5054793;28;20174;-81
2023/03/20 09:00:11;;;;;;;27.67;14.90;;;10.10;99.90;;;;;;5054619;28;20193;-81
2023/03/20 09:02:37;;;;;;;27.27;14.30;;;10.00;99.90;;;;;;5053753;28;20243;-81
2023/03/20 09:05:03;;;;;;;27.07;14.60;;;10.00;99.90;;;;;;5054086;28;20180;-82
2023/03/20 09:07:28;;;;;;;28.23;14.80;;;9.90;99.90;;;;;;5054737;28;20172;-81
2023/03/20 09:09:54;;;;;;;29.73;15.17;;;9.90;99.90;;;;;;5054952;28;20646;-84
2023/03/20 09:12:20;;;;;;;32.07;16.10;;;9.90;99.90;;;;;;5054710;28;20187;-84
2023/03/20 09:14:46;;;;;;;29.83;15.47;;;9.80;99.90;;;;;;5056317;28;20200;-81
2023/03/20 09:17:11;;;;;;;27.90;14.67;;;9.80;99.90;;;;;;5069455;28;20203;-81
2023/03/20 09:19:38;;;;;;;28.07;14.97;;;9.80;99.90;;;;;;5078858;28;20287;-80
2023/03/20 09:22:04;;;;;;;30.03;15.10;;;9.70;99.90;;;;;;5073457;28;20248;-84
2023/03/20 09:24:31;;;;;;;30.50;15.33;;;9.70;99.90;;;;;;5065434;28;20687;-81
2023/03/20 09:26:57;;;;;;;30.07;15.47;;;9.70;99.90;;;;;;5063283;28;20181;-81
2023/03/20 09:29:23;;;;;;;29.60;16.77;;;9.70;99.90;;;;;;5075063;28;20188;-84
2023/03/20 09:31:48;;;;;;;31.23;16.17;;;9.80;99.90;;;;;;5065167;28;20184;-82
2023/03/20 09:34:14;;;;;;;32.00;17.43;;;9.70;99.90;;;;;;5051378;28;20259;-84
2023/03/20 09:36:40;;;;;;;30.80;16.20;;;9.70;99.90;;;;;;5053630;28;20173;-82
2023/03/20 09:39:05;;;;;;;34.23;17.47;;;9.70;99.90;;;;;;5053993;28;20634;-82
2023/03/20 09:41:35;;;;;;;27.23;14.40;;;9.70;99.90;;;;;;5053886;28;20205;-83
2023/03/20 09:44:17;;;;;;;33.07;16.47;;;9.70;99.90;;;;;;5055515;28;20171;-81
2023/03/20 09:47:07;;;;;;;34.43;16.17;;;9.70;99.90;;;;;;5058899;28;20177;-80
2023/03/20 09:49:42;;;;;;;30.00;15.93;;;9.70;99.90;;;;;;5047102;28;20218;-80
2023/03/20 09:52:17;;;;;;;33.10;15.30;;;9.70;99.90;;;;;;5037717;28;20191;-83
2023/03/20 09:54:46;;;;;;;29.10;14.77;;;9.60;99.90;;;;;;5048701;28;20197;-80
2023/03/20 09:57:24;;;;;;;33.03;16.20;;;9.60;99.90;;;;;;5057945;28;20186;-83
2023/03/20 09:59:56;;;;;;;29.33;15.43;;;9.60;99.90;;;;;;5057667;28;20231;-82
2023/03/20 10:02:36;;;;;;;32.30;15.97;;;9.60;99.90;;;;;;5057910;28;20172;-80
2023/03/20 10:05:03;;;;;;;33.87;15.27;;;9.70;99.90;;;;;;5059238;28;20176;-80
2023/03/20 10:07:29;;;;;;;30.83;15.97;;;9.70;99.90;;;;;;5058491;28;20211;-81
2023/03/20 10:09:54;;;;;;;34.37;15.87;;;9.70;99.90;;;;;;5059039;28;20193;-81
2023/03/20 10:12:30;;;;;;;32.27;15.80;;;9.80;99.90;;;;;;5054694;28;20186;-80
2023/03/20 10:15:17;;;;;;;32.77;15.63;;;9.80;99.90;;;;;;5059137;28;20196;-81
2023/03/20 10:17:57;;;;;;;32.97;15.60;;;9.80;99.90;;;;;;5058488;28;20199;-80
2023/03/20 10:20:31;;;;;;;30.37;15.57;;;9.80;99.90;;;;;;5058249;28;20246;-80
2023/03/20 10:23:04;;;;;;;31.83;16.03;;;9.70;99.90;;;;;;5052584;28;20229;-83
2023/03/20 10:25:54;;;;;;;30.83;15.77;;;9.70;99.90;;;;;;5057025;28;20187;-80
2023/03/20 10:29:19;;;;;;;28.17;14.60;;;9.60;99.90;;;;;;5056874;28;20253;-78
2023/03/20 10:32:06;;;;;;;29.07;15.43;;;9.60;99.90;;;;;;4983585;28;20181;-86
2023/03/20 10:34:43;;;;;;;29.03;15.27;;;9.60;99.90;;;;;;4961136;28;20259;-82
2023/03/20 10:37:27;;;;;;;32.70;14.00;;;9.60;99.90;;;;;;5031767;28;20173;-80
2023/03/20 10:40:26;;;;;;;29.43;14.33;;;9.60;99.90;;;;;;5056159;28;20274;-83
2023/03/20 10:42:55;;;;;;;29.50;13.63;;;9.60;99.90;;;;;;5022544;28;20191;-83
2023/03/20 10:45:58;;;;;;;30.60;14.87;;;9.60;99.90;;;;;;5056660;28;20574;-80
2023/03/20 10:48:30;;;;;;;31.00;14.37;;;9.70;99.90;;;;;;5014543;28;20216;-80
2023/03/20 10:50:59;;;;;;;28.13;14.00;;;9.80;99.90;;;;;;5055561;28;20188;-81
2023/03/20 10:53:46;;;;;;;25.77;13.67;;;9.80;99.90;;;;;;5055920;28;20204;-80
2023/03/20 10:56:25;;;;;;;24.37;12.83;;;9.80;99.90;;;;;;5054758;28;20191;-83
2023/03/20 10:59:02;;;;;;;29.70;14.20;;;9.90;99.90;;;;;;5054259;28;20261;-83
2023/03/20 11:01:27;;;;;;;33.03;16.07;;;10.60;99.90;;;;;;5052816;28;20199;-83
2023/03/20 11:03:54;;;;;;;25.10;13.03;;;10.50;99.90;;;;;;5053134;28;20181;-83
2023/03/20 11:06:27;;;;;;;25.37;12.67;;;10.30;99.90;;;;;;5054100;28;20174;-83
2023/03/20 11:08:53;;;;;;;24.63;12.80;;;10.20;99.90;;;;;;5055031;28;20174;-84
2023/03/20 11:11:26;;;;;;;20.87;11.47;;;10.20;99.90;;;;;;5055438;28;20203;-81
2023/03/20 11:13:53;;;;;;;21.23;12.30;;;10.10;99.90;;;;;;5054631;28;20181;-81
2023/03/20 11:16:22;;;;;;;24.50;12.40;;;10.10;99.90;;;;;;5053780;28;20179;-81
2023/03/20 11:18:49;;;;;;;21.23;11.43;;;10.10;99.90;;;;;;5054280;28;20173;-82
2023/03/20 11:21:22;;;;;;;19.43;10.70;;;10.60;99.90;;;;;;5054225;28;20234;-82
2023/03/20 11:23:48;;;;;;;19.57;11.43;;;10.50;99.90;;;;;;5052418;28;20172;-85
2023/03/20 11:26:17;;;;;;;18.20;10.57;;;10.70;99.90;;;;;;5053381;28;20210;-84
2023/03/20 11:28:54;;;;;;;19.30;10.80;;;10.70;99.90;;;;;;5053583;28;20170;-85
2023/03/20 11:31:31;;;;;;;17.00;10.17;;;10.80;99.90;;;;;;5053182;28;20197;-85
2023/03/20 11:34:03;;;;;;;17.47;9.93;;;10.90;99.90;;;;;;5053217;28;20200;-82
2023/03/20 11:36:32;;;;;;;18.37;10.53;;;10.90;99.90;;;;;;5051761;28;20265;-83
2023/03/20 11:39:26;;;;;;;17.67;9.67;;;11.00;99.90;;;;;;5052222;28;20170;-84
2023/03/20 11:41:54;;;;;;;15.77;9.87;;;11.20;99.90;;;;;;5042447;28;20659;-84
2023/03/20 11:44:19;;;;;;;17.00;9.60;;;11.40;99.90;;;;;;5053699;28;20185;-80
2023/03/20 11:47:00;;;;;;;21.33;9.67;;;11.50;99.90;;;;;;5053207;28;20178;-81
2023/03/20 11:49:28;;;;;;;18.40;10.07;;;11.40;99.90;;;;;;5054604;28;20189;-81
2023/03/20 11:52:00;;;;;;;16.70;9.70;;;11.30;99.90;;;;;;5055968;28;20197;-83
2023/03/20 11:54:27;;;;;;;16.43;9.10;;;11.20;99.90;;;;;;5055792;28;20304;-80
2023/03/20 11:56:54;;;;;;;14.37;8.87;;;10.90;99.90;;;;;;5054830;28;20170;-82
2023/03/20 11:59:21;;;;;;;17.60;9.40;;;10.90;99.90;;;;;;5054825;28;20166;-79
2023/03/20 12:01:48;;;;;;;17.37;9.73;;;10.80;99.90;;;;;;5055859;28;20174;-81
2023/03/20 12:04:41;;;;;;;17.47;9.77;;;10.70;99.90;;;;;;5054680;28;20189;-80
2023/03/20 12:07:15;;;;;;;16.77;9.63;;;10.70;99.90;;;;;;5056212;28;20260;-82
2023/03/20 12:09:52;;;;;;;17.43;10.43;;;10.80;99.90;;;;;;5054420;28;20567;-80
2023/03/20 12:12:47;;;;;;;18.67;10.97;;;10.90;99.90;;;;;;5054344;28;20618;-80
2023/03/20 12:15:15;;;;;;;18.57;10.00;;;10.90;99.90;;;;;;5056012;28;20683;-80
2023/03/20 12:17:49;;;;;;;18.83;10.33;;;11.00;99.90;;;;;;5056899;28;20174;-80
2023/03/20 12:20:42;;;;;;;16.47;10.60;;;11.00;99.90;;;;;;5053606;28;20194;-81
2023/03/20 12:23:08;;;;;;;15.53;9.87;;;10.90;99.90;;;;;;5051814;28;20257;-82
2023/03/20 12:25:43;;;;;;;19.10;10.87;;;11.10;99.90;;;;;;5055475;28;20213;-80
2023/03/20 12:28:26;;;;;;;18.23;9.93;;;11.10;99.90;;;;;;5055708;28;20181;-81
2023/03/20 12:31:13;;;;;;;15.67;9.87;;;11.10;99.90;;;;;;5054197;28;20197;-83
2023/03/20 12:33:48;;;;;;;17.60;10.53;;;11.00;99.90;;;;;;5053693;28;20264;-80
2023/03/20 12:36:17;;;;;;;17.10;10.53;;;11.00;99.90;;;;;;5054985;28;20235;-81
2023/03/20 12:38:44;;;;;;;17.13;10.37;;;11.00;99.90;;;;;;5061410;28;20590;-80
2023/03/20 12:41:27;;;;;;;17.20;10.67;;;11.00;99.90;;;;;;5062795;28;20212;-80
2023/03/20 12:43:55;;;;;;;16.17;10.03;;;11.00;99.90;;;;;;5042297;28;20227;-81
2023/03/20 12:46:24;;;;;;;16.13;10.60;;;10.80;99.90;;;;;;5054936;28;20165;-81
2023/03/20 12:49:18;;;;;;;16.93;10.07;;;10.90;99.90;;;;;;5054736;28;20181;-81
2023/03/20 12:52:22;;;;;;;16.70;10.10;;;11.10;99.90;;;;;;5053897;28;20184;-80
2023/03/20 12:55:24;;;;;;;14.97;9.27;;;11.40;99.90;;;;;;5047650;28;20208;-81
2023/03/20 12:58:24;;;;;;;14.77;9.23;;;11.50;99.90;;;;;;5034068;28;20193;-81